Time;durP1;ratioP1;P1;durP2;ratioP2;P2;SDS_P1;SDS_P2;PMS_P1;PMS_P2;Temp;Humidity;BMP_temperature;BMP_pressure;BME280_temperature;BME280_humidity;BME280_pressure;Samples;Min_cycle;Max_cycle;Signal;HPM_P1;HPM_P2
2022/07/17 00:01:15;;;;;;;1.10;1.00;;;;;;;14.09;61.04;102625.53;5113203;28;20016;-83
2022/07/17 00:03:40;;;;;;;1.73;0.80;;;;;;;14.03;61.00;102623.81;5112527;28;20061;-84
2022/07/17 00:06:06;;;;;;;0.93;0.90;;;;;;;13.98;61.33;102630.78;5112854;28;20064;-83
2022/07/17 00:08:31;;;;;;;0.77;0.77;;;;;;;13.94;61.50;102627.31;5113207;28;20475;-84
2022/07/17 00:10:57;;;;;;;0.90;0.90;;;;;;;13.90;61.52;102625.56;5111414;28;20031;-83
2022/07/17 00:13:23;;;;;;;1.53;0.90;;;;;;;13.85;61.51;102620.34;5113187;28;20023;-84
2022/07/17 00:15:49;;;;;;;1.05;0.80;;;;;;;13.81;61.45;102625.56;5113177;28;20027;-84
2022/07/17 00:18:14;;;;;;;0.90;0.90;;;;;;;13.79;61.58;102622.09;5114114;28;20016;-84
2022/07/17 00:20:40;;;;;;;0.80;0.80;;;;;;;13.77;62.00;102618.59;5117289;28;20019;-84
2022/07/17 00:23:05;;;;;;;1.00;1.00;;;;;;;13.73;61.82;102622.97;5116939;28;20110;-84
2022/07/17 00:25:32;;;;;;;1.00;1.00;;;;;;;13.71;61.69;102625.59;5116243;28;20020;-84
2022/07/17 00:27:57;;;;;;;1.25;0.88;;;;;;;13.69;61.69;102626.44;5117122;28;20031;-84
2022/07/17 00:30:23;;;;;;;0.90;0.90;;;;;;;13.63;61.81;102627.28;5117297;28;20023;-85
2022/07/17 00:32:48;;;;;;;1.40;1.30;;;;;;;13.60;62.08;102619.50;5116521;28;20375;-84
2022/07/17 00:35:14;;;;;;;1.00;1.00;;;;;;;13.56;62.40;102621.22;5116836;28;20116;-84
2022/07/17 00:37:40;;;;;;;1.23;1.13;;;;;;;13.53;62.60;102622.94;5116199;28;20019;-84
2022/07/17 00:40:07;;;;;;;1.17;1.02;;;;;;;13.50;62.89;102620.34;5115709;28;20539;-84
2022/07/17 00:42:32;;;;;;;1.20;1.20;;;;;;;13.46;63.34;102627.28;5116810;28;20106;-84
2022/07/17 00:44:57;;;;;;;1.27;1.20;;;;;;;13.42;62.92;102628.16;5116985;28;20107;-84
2022/07/17 00:47:23;;;;;;;1.60;1.50;;;;;;;13.40;62.93;102622.94;5116046;28;20372;-84
2022/07/17 00:49:48;;;;;;;1.50;1.40;;;;;;;13.37;63.41;102624.63;5116781;28;20090;-84
2022/07/17 00:52:15;;;;;;;1.53;1.37;;;;;;;13.34;63.08;102624.66;5116068;28;20730;-83
2022/07/17 00:54:43;;;;;;;1.33;1.23;;;;;;;13.31;63.19;102628.09;5116615;28;20023;-84
2022/07/17 00:57:14;;;;;;;2.35;1.30;;;;;;;13.29;63.10;102632.44;5116224;28;20035;-84
2022/07/17 00:59:39;;;;;;;1.05;1.02;;;;;;;13.27;63.30;102626.38;5116071;28;20026;-83
2022/07/17 01:02:06;;;;;;;1.47;1.30;;;;;;;13.23;63.21;102625.47;5116432;28;20468;-83
2022/07/17 01:04:35;;;;;;;1.27;1.10;;;;;;;13.21;63.18;102624.63;5116790;28;20387;-84
2022/07/17 01:07:03;;;;;;;1.02;1.00;;;;;;;13.17;63.64;102616.78;5115054;28;20023;-83
2022/07/17 01:09:29;;;;;;;1.13;1.05;;;;;;;13.15;63.53;102619.38;5116456;28;20491;-83
2022/07/17 01:11:55;;;;;;;1.33;1.20;;;;;;;13.12;63.75;102614.16;5116215;28;20062;-84
2022/07/17 01:14:22;;;;;;;1.40;1.08;;;;;;;13.10;63.82;102611.53;5115840;28;20028;-84
2022/07/17 01:16:48;;;;;;;1.33;1.20;;;;;;;13.07;63.88;102608.91;5115989;28;20133;-84
2022/07/17 01:19:13;;;;;;;1.33;1.13;;;;;;;13.05;63.89;102615.00;5116193;28;20063;-82
2022/07/17 01:21:41;;;;;;;1.60;1.20;;;;;;;13.03;64.15;102612.41;5115743;27;20035;-84
2022/07/17 01:24:06;;;;;;;1.58;1.20;;;;;;;13.00;64.21;102608.94;5115900;28;20111;-84
2022/07/17 01:26:31;;;;;;;1.10;1.10;;;;;;;12.97;63.92;102605.44;5116492;28;20112;-84
2022/07/17 01:28:57;;;;;;;1.20;1.10;;;;;;;12.93;64.30;102608.91;5114758;28;20035;-84
2022/07/17 01:31:22;;;;;;;1.03;1.00;;;;;;;12.90;64.55;102611.47;5115730;28;20069;-84
2022/07/17 01:33:48;;;;;;;1.20;1.10;;;;;;;12.87;64.26;102611.50;5116160;28;20479;-84
2022/07/17 01:36:13;;;;;;;1.20;1.00;;;;;;;12.84;64.42;102616.69;5114953;28;20481;-84
2022/07/17 01:38:39;;;;;;;1.00;1.00;;;;;;;12.80;64.48;102601.91;5115869;28;20052;-83
2022/07/17 01:41:04;;;;;;;1.20;1.10;;;;;;;12.75;64.65;102593.22;5115346;28;20051;-83
2022/07/17 01:43:29;;;;;;;1.00;1.00;;;;;;;12.73;64.96;102602.75;5115393;28;20030;-83
2022/07/17 01:45:55;;;;;;;1.20;1.10;;;;;;;12.70;65.08;102606.22;5115121;28;20093;-84
2022/07/17 01:48:26;;;;;;;1.03;1.03;;;;;;;12.68;65.05;102610.53;5115751;28;20077;-83
2022/07/17 01:50:51;;;;;;;1.10;1.10;;;;;;;12.65;65.36;102608.81;5115373;28;20047;-83
2022/07/17 01:53:17;;;;;;;1.27;1.20;;;;;;;12.64;65.22;102608.78;5115827;28;20023;-84
2022/07/17 01:55:42;;;;;;;1.57;1.40;;;;;;;12.64;64.99;102611.38;5114857;28;20032;-83
2022/07/17 01:58:07;;;;;;;1.23;1.17;;;;;;;12.62;64.92;102629.63;5115413;27;20413;-83
2022/07/17 02:00:33;;;;;;;1.77;1.50;;;;;;;12.60;65.18;102631.34;5115671;27;20028;-83
2022/07/17 02:02:58;;;;;;;1.37;1.27;;;;;;;12.60;65.28;102623.53;5114570;28;20027;-83
2022/07/17 02:05:23;;;;;;;1.70;1.60;;;;;;;12.56;65.22;102618.31;5115071;27;20028;-83
2022/07/17 02:07:48;;;;;;;2.07;1.50;;;;;;;12.52;65.15;102622.63;5114635;28;20069;-83
2022/07/17 02:10:14;;;;;;;1.30;1.20;;;;;;;12.48;65.47;102628.66;5114647;28;20052;-83
2022/07/17 02:12:39;;;;;;;2.97;1.50;;;;;;;12.44;65.45;102619.13;5115414;28;20027;-83
2022/07/17 02:15:05;;;;;;;1.33;1.23;;;;;;;12.42;65.77;102621.69;5115132;28;20016;-83
2022/07/17 02:17:31;;;;;;;1.33;1.23;;;;;;;12.39;65.96;102618.22;5114555;28;20183;-83
2022/07/17 02:19:56;;;;;;;1.57;1.47;;;;;;;12.36;65.68;102627.75;5114593;28;20059;-83
2022/07/17 02:22:21;;;;;;;1.27;1.27;;;;;;;12.34;65.71;102624.25;5115135;27;20031;-83
2022/07/17 02:24:46;;;;;;;1.37;1.30;;;;;;;12.33;66.27;102629.47;5114198;28;20028;-83
2022/07/17 02:27:12;;;;;;;1.90;1.13;;;;;;;12.30;65.94;102621.63;5114804;28;20020;-83
2022/07/17 02:29:37;;;;;;;1.80;1.40;;;;;;;12.25;65.96;102631.16;5114669;28;20035;-83
2022/07/17 02:32:03;;;;;;;1.63;1.27;;;;;;;12.20;65.97;102624.19;5113683;28;20372;-83
2022/07/17 02:34:28;;;;;;;1.43;1.33;;;;;;;12.16;66.23;102625.00;5114882;28;20024;-83
2022/07/17 02:36:53;;;;;;;1.50;1.40;;;;;;;12.12;66.47;102622.38;5114415;28;20031;-84
2022/07/17 02:39:18;;;;;;;1.30;1.20;;;;;;;12.08;66.44;102616.28;5114192;28;20033;-83
2022/07/17 02:41:44;;;;;;;1.33;1.23;;;;;;;12.04;66.36;102622.34;5114803;28;20024;-83
2022/07/17 02:44:09;;;;;;;1.20;1.20;;;;;;;11.99;66.60;102608.41;5114391;28;20421;-83
2022/07/17 02:46:34;;;;;;;1.13;1.07;;;;;;;11.97;66.96;102611.00;5114032;28;20023;-83
2022/07/17 02:49:00;;;;;;;1.33;1.23;;;;;;;11.93;66.75;102600.56;5113868;28;20085;-83
2022/07/17 02:51:25;;;;;;;2.43;1.60;;;;;;;11.93;66.83;102601.41;5114531;28;20034;-83
2022/07/17 02:53:50;;;;;;;1.10;1.10;;;;;;;11.90;66.88;102598.78;5113572;28;20547;-83
2022/07/17 02:56:15;;;;;;;1.23;1.17;;;;;;;11.88;67.19;102603.09;5113894;28;20040;-83
2022/07/17 02:58:41;;;;;;;2.70;1.43;;;;;;;11.84;67.23;102599.59;5114242;28;20034;-83
2022/07/17 03:01:06;;;;;;;0.97;0.97;;;;;;;11.81;67.17;102607.41;5112940;28;20031;-83
2022/07/17 03:03:31;;;;;;;1.33;1.23;;;;;;;11.77;67.34;102616.03;5114128;28;20459;-83
2022/07/17 03:05:57;;;;;;;1.20;1.03;;;;;;;11.76;67.56;102616.03;5112935;28;20070;-83
2022/07/17 03:08:22;;;;;;;3.10;1.50;;;;;;;11.74;67.41;102619.47;5113441;28;20034;-83
2022/07/17 03:10:47;;;;;;;1.50;1.40;;;;;;;11.76;67.80;102618.63;5113956;28;20066;-83
2022/07/17 03:13:12;;;;;;;1.60;1.50;;;;;;;11.73;67.44;102628.16;5113205;27;20028;-83
2022/07/17 03:15:38;;;;;;;1.57;1.47;;;;;;;11.71;67.29;102627.25;5113957;28;20020;-84
2022/07/17 03:18:03;;;;;;;1.53;1.43;;;;;;;11.71;67.32;102631.56;5113923;28;20020;-84
2022/07/17 03:20:28;;;;;;;1.30;1.20;;;;;;;11.68;67.95;102626.34;5113212;28;20028;-83
2022/07/17 03:22:54;;;;;;;1.77;1.40;;;;;;;11.68;67.57;102635.03;5113687;28;20396;-83
2022/07/17 03:25:19;;;;;;;2.30;1.57;;;;;;;11.66;67.66;102630.66;5113866;28;20028;-83
2022/07/17 03:27:44;;;;;;;1.37;1.33;;;;;;;11.65;67.94;102626.31;5113231;28;20114;-83
2022/07/17 03:30:09;;;;;;;1.20;1.20;;;;;;;11.58;67.67;102621.09;5113470;28;20030;-84
2022/07/17 03:32:35;;;;;;;1.10;1.00;;;;;;;11.54;68.25;102623.66;5113471;28;20035;-83
2022/07/17 03:35:01;;;;;;;1.13;1.13;;;;;;;11.49;68.22;102628.78;5112499;28;20034;-83
2022/07/17 03:37:27;;;;;;;1.13;1.13;;;;;;;11.48;68.18;102629.66;5113604;28;20024;-83
2022/07/17 03:39:52;;;;;;;1.00;1.00;;;;;;;11.47;68.23;102621.81;5113540;28;20520;-83
2022/07/17 03:42:18;;;;;;;1.10;1.00;;;;;;;11.42;68.39;102614.88;5112948;28;20023;-83
2022/07/17 03:44:43;;;;;;;1.10;1.10;;;;;;;11.44;67.83;102612.28;5113635;27;20434;-83
2022/07/17 03:47:09;;;;;;;1.23;1.20;;;;;;;11.40;68.47;102621.78;5113348;28;20544;-83
2022/07/17 03:49:34;;;;;;;2.23;1.37;;;;;;;11.38;68.47;102626.09;5112383;28;20093;-83
2022/07/17 03:51:59;;;;;;;1.00;1.00;;;;;;;11.36;68.33;102622.59;5112647;28;20051;-83
2022/07/17 03:54:24;;;;;;;2.73;1.13;;;;;;;11.36;68.48;102614.78;5113274;28;20095;-83
2022/07/17 03:56:50;;;;;;;1.33;1.23;;;;;;;11.34;68.28;102613.03;5112273;28;20028;-83
2022/07/17 03:59:15;;;;;;;2.10;1.50;;;;;;;11.30;68.71;102616.47;5113266;28;20032;-83
2022/07/17 04:01:40;;;;;;;1.27;1.17;;;;;;;11.30;69.16;102627.75;5113173;28;20035;-83
2022/07/17 04:04:05;;;;;;;1.50;1.40;;;;;;;11.31;68.34;102623.41;5112433;28;20412;-83
2022/07/17 04:06:31;;;;;;;2.07;1.40;;;;;;;11.33;68.54;102624.28;5112917;28;20030;-84
2022/07/17 04:08:56;;;;;;;1.63;1.50;;;;;;;11.33;68.58;102635.56;5113121;28;20045;-83
2022/07/17 04:11:21;;;;;;;1.60;1.50;;;;;;;11.34;68.44;102636.44;5112415;28;20081;-83
2022/07/17 04:13:48;;;;;;;1.50;1.40;;;;;;;11.38;68.76;102635.59;5112610;28;20040;-83
2022/07/17 04:16:13;;;;;;;1.88;1.77;;;;;;;11.39;68.46;102638.22;5112301;28;20028;-82
2022/07/17 04:18:38;;;;;;;1.60;1.50;;;;;;;11.39;68.88;102639.94;5113331;28;20023;-83
2022/07/17 04:21:09;;;;;;;1.40;1.30;;;;;;;11.41;68.98;102638.22;5112525;28;20046;-83
2022/07/17 04:23:35;;;;;;;1.35;1.25;;;;;;;11.41;68.72;102639.13;5112597;28;20012;-83
2022/07/17 04:26:00;;;;;;;1.48;1.33;;;;;;;11.42;69.02;102646.06;5112967;28;20028;-83
2022/07/17 04:28:26;;;;;;;1.40;1.30;;;;;;;11.43;68.94;102645.19;5113141;28;20031;-84
2022/07/17 04:30:51;;;;;;;1.40;1.30;;;;;;;11.43;69.10;102646.94;5111738;28;20031;-83
2022/07/17 04:33:17;;;;;;;2.00;1.40;;;;;;;11.47;69.17;102643.50;5113116;27;20145;-83
2022/07/17 04:35:42;;;;;;;1.40;1.30;;;;;;;11.50;68.95;102642.66;5112911;28;20118;-83
2022/07/17 04:38:09;;;;;;;1.30;1.30;;;;;;;11.52;68.86;102630.56;5112229;28;20024;-83
2022/07/17 04:40:36;;;;;;;1.67;1.58;;;;;;;11.56;69.03;102635.78;5112727;28;20489;-83
2022/07/17 04:43:03;;;;;;;2.22;1.60;;;;;;;11.59;68.76;102630.63;5112758;28;20019;-84
2022/07/17 04:45:29;;;;;;;1.52;1.33;;;;;;;11.66;69.06;102641.06;5112163;28;20032;-83
2022/07/17 04:47:54;;;;;;;2.30;1.60;;;;;;;11.70;69.14;102648.91;5112265;28;20043;-83
2022/07/17 04:50:20;;;;;;;1.33;1.23;;;;;;;11.74;69.17;102640.28;5112310;28;20579;-84
2022/07/17 04:52:45;;;;;;;1.10;1.10;;;;;;;11.80;69.28;102644.69;5112264;28;20073;-83
2022/07/17 04:55:11;;;;;;;1.47;1.37;;;;;;;11.85;69.10;102639.50;5112675;28;20055;-83
2022/07/17 04:57:36;;;;;;;1.40;1.30;;;;;;;11.90;69.29;102649.09;5112830;28;20024;-84
2022/07/17 05:00:05;;;;;;;1.60;1.50;;;;;;;11.98;69.32;102663.91;5111489;28;20015;-83
2022/07/17 05:02:30;;;;;;;1.80;1.38;;;;;;;12.03;69.33;102665.69;5111719;28;20391;-82
2022/07/17 05:04:56;;;;;;;1.03;1.03;;;;;;;12.09;69.26;102661.41;5114326;28;20027;-83
2022/07/17 05:07:21;;;;;;;1.20;1.20;;;;;;;12.14;68.83;102668.41;5115553;28;20066;-83
2022/07/17 05:09:46;;;;;;;1.47;1.37;;;;;;;12.18;68.89;102654.53;5116609;28;20047;-83
2022/07/17 05:12:12;;;;;;;1.50;1.40;;;;;;;12.25;69.16;102658.03;5115928;28;20391;-83
2022/07/17 05:14:37;;;;;;;1.60;1.50;;;;;;;12.30;69.14;102652.88;5115857;28;20471;-83
2022/07/17 05:17:02;;;;;;;1.10;1.10;;;;;;;12.32;70.20;102652.03;5115597;28;20540;-82
2022/07/17 05:19:27;;;;;;;1.43;1.33;;;;;;;12.35;69.19;102648.56;5115621;28;20034;-83
2022/07/17 05:21:53;;;;;;;1.17;1.10;;;;;;;12.40;69.43;102652.06;5116185;28;20031;-82
2022/07/17 05:24:18;;;;;;;1.40;1.30;;;;;;;12.47;69.48;102659.06;5115895;28;20054;-83
2022/07/17 05:26:43;;;;;;;1.83;1.60;;;;;;;12.51;70.18;102655.59;5114892;28;20346;-83
2022/07/17 05:29:09;;;;;;;1.40;1.30;;;;;;;12.56;69.85;102647.81;5116020;28;20080;-82
2022/07/17 05:31:34;;;;;;;1.43;1.33;;;;;;;12.64;69.43;102653.06;5115989;28;20036;-83
2022/07/17 05:33:59;;;;;;;2.00;1.60;;;;;;;12.67;70.36;102653.09;5114918;28;20107;-83
2022/07/17 05:36:25;;;;;;;3.43;1.70;;;;;;;12.73;71.51;102654.84;5116145;28;20483;-83
2022/07/17 05:38:51;;;;;;;1.83;1.20;;;;;;;12.79;70.57;102654.88;5115721;28;20375;-82
2022/07/17 05:41:16;;;;;;;1.60;1.50;;;;;;;12.85;70.17;102643.59;5115415;28;20488;-83
2022/07/17 05:43:41;;;;;;;1.37;1.27;;;;;;;12.91;69.46;102646.25;5116057;28;20485;-83
2022/07/17 05:46:07;;;;;;;2.40;1.60;;;;;;;12.96;72.27;102652.31;5115552;28;20042;-83
2022/07/17 05:48:32;;;;;;;3.13;2.20;;;;;;;13.03;71.05;102651.50;5114888;28;20110;-82
2022/07/17 05:50:57;;;;;;;2.30;1.77;;;;;;;13.09;70.03;102641.09;5114580;28;20043;-83
2022/07/17 05:53:23;;;;;;;1.53;1.43;;;;;;;13.14;70.56;102646.31;5115335;28;20055;-83
2022/07/17 05:55:48;;;;;;;2.43;1.60;;;;;;;13.20;71.19;102650.66;5114725;28;20030;-83
2022/07/17 05:58:14;;;;;;;1.37;1.27;;;;;;;13.26;69.39;102640.28;5115267;28;20031;-84
2022/07/17 06:00:39;;;;;;;1.30;1.20;;;;;;;13.33;69.82;102643.75;5115415;28;20436;-83
2022/07/17 06:03:04;;;;;;;1.40;1.30;;;;;;;13.37;69.93;102646.38;5114642;28;20436;-83
2022/07/17 06:05:30;;;;;;;6.27;2.50;;;;;;;13.39;70.28;102647.28;5115630;28;20039;-84
2022/07/17 06:07:56;;;;;;;6.37;3.10;;;;;;;13.43;70.91;102645.56;5115420;28;20020;-86
2022/07/17 06:10:23;;;;;;;4.43;2.63;;;;;;;13.49;69.70;102636.88;5114989;28;20019;-86
2022/07/17 06:12:49;;;;;;;;;;;;;;;13.54;70.86;102630.78;5115626;28;20451;-85
2022/07/17 06:15:15;;;;;;;7.20;2.95;;;;;;;13.62;70.39;102625.59;5114646;28;19973;-81
2022/07/17 06:17:40;;;;;;;5.30;2.70;;;;;;;13.72;70.83;102621.22;5114071;28;20393;-81
2022/07/17 06:20:06;;;;;;;3.50;2.50;;;;;;;13.94;70.39;102624.69;5114524;28;20131;-81
2022/07/17 06:22:32;;;;;;;6.00;2.67;;;;;;;14.33;68.47;102619.41;5115052;28;20023;-90
2022/07/17 06:24:57;;;;;;;2.97;2.40;;;;;;;14.84;68.51;102624.47;5115551;28;20156;-90
2022/07/17 06:27:22;;;;;;;6.03;2.93;;;;;;;15.32;66.01;102633.78;5116211;28;20024;-91
2022/07/17 06:29:48;;;;;;;3.17;2.37;;;;;;;15.75;65.83;102636.97;5115783;28;20103;-91
2022/07/17 06:32:13;;;;;;;2.50;2.00;;;;;;;16.30;65.65;102646.97;5116420;28;20015;-91
2022/07/17 06:34:39;;;;;;;3.13;2.07;;;;;;;16.57;63.87;102651.03;5116005;28;20031;-91
2022/07/17 06:37:05;;;;;;;3.27;2.20;;;;;;;16.65;63.44;102653.56;5115840;28;20011;-92
2022/07/17 06:39:30;;;;;;;2.47;1.97;;;;;;;16.90;62.25;102645.38;5115964;28;20020;-89
2022/07/17 06:41:56;;;;;;;1.90;1.80;;;;;;;17.50;62.35;102648.94;5115617;28;20019;-89
2022/07/17 06:44:21;;;;;;;4.53;2.60;;;;;;;18.21;58.77;102656.50;5115137;28;20031;-88
2022/07/17 06:46:46;;;;;;;4.97;2.47;;;;;;;18.50;58.26;102664.72;5115424;28;20042;-89
2022/07/17 06:49:11;;;;;;;5.67;2.47;;;;;;;18.84;58.36;102661.41;5114923;28;20071;-89
2022/07/17 06:51:37;;;;;;;4.17;2.20;;;;;;;19.20;59.20;102666.81;5115630;27;20032;-90
2022/07/17 06:54:02;;;;;;;2.60;1.70;;;;;;;19.59;57.34;102664.13;5115118;28;20035;-87
2022/07/17 06:56:27;;;;;;;2.00;1.80;;;;;;;19.97;57.46;102673.78;5115326;28;20023;-88
2022/07/17 06:58:53;;;;;;;1.77;1.40;;;;;;;20.31;56.80;102679.03;5115079;28;20032;-93
2022/07/17 07:01:18;;;;;;;2.10;1.40;;;;;;;20.51;56.01;102674.97;5115198;28;20108;-93
2022/07/17 07:03:43;;;;;;;3.03;1.80;;;;;;;20.53;55.38;102686.34;5115698;28;20080;-93
2022/07/17 07:06:08;;;;;;;3.30;2.10;;;;;;;20.46;51.31;102680.38;5114715;28;20471;-88
2022/07/17 07:08:34;;;;;;;2.60;2.10;;;;;;;20.16;52.90;102682.91;5115292;28;20531;-89
2022/07/17 07:11:06;;;;;;;2.20;2.00;;;;;;;19.99;53.44;102685.13;5114633;28;20023;-89
2022/07/17 07:13:31;;;;;;;5.07;2.67;;;;;;;19.77;53.18;102693.56;5114420;28;20459;-90
2022/07/17 07:15:57;;;;;;;2.57;2.00;;;;;;;19.59;55.78;102697.50;5114926;28;20030;-91
2022/07/17 07:18:22;;;;;;;3.13;2.10;;;;;;;19.74;54.07;102701.53;5114094;28;20020;-87
2022/07/17 07:20:53;;;;;;;4.00;2.30;;;;;;;19.69;51.71;102693.75;5113880;28;20030;-95
2022/07/17 07:23:18;;;;;;;3.72;2.33;;;;;;;19.50;53.55;102690.69;5114531;28;20541;-88
2022/07/17 07:25:44;;;;;;;5.33;2.40;;;;;;;19.40;54.42;102689.16;5117377;28;20031;-90
2022/07/17 07:28:09;;;;;;;4.97;2.33;;;;;;;19.41;54.66;102686.50;5112426;28;20038;-85
2022/07/17 07:30:35;;;;;;;3.17;1.93;;;;;;;19.61;55.27;102687.81;5113679;28;20042;-84
2022/07/17 07:33:00;;;;;;;3.50;1.70;;;;;;;19.75;54.16;102685.72;5108501;28;20039;-82
2022/07/17 07:35:26;;;;;;;1.90;1.70;;;;;;;19.87;54.11;102688.97;5112775;28;20027;-83
2022/07/17 07:37:51;;;;;;;4.10;1.80;;;;;;;19.95;54.64;102686.13;5112568;28;20024;-84
2022/07/17 07:40:16;;;;;;;1.57;1.47;;;;;;;20.19;54.66;102684.63;5111639;28;20118;-83
2022/07/17 07:42:42;;;;;;;2.53;1.87;;;;;;;20.15;53.17;102686.47;5113105;28;20070;-83
2022/07/17 07:45:08;;;;;;;5.80;2.33;;;;;;;20.12;50.86;102689.19;5110780;28;20028;-83
2022/07/17 07:47:40;;;;;;;3.33;2.00;;;;;;;20.08;52.78;102689.31;5111497;28;20387;-83
2022/07/17 07:50:06;;;;;;;2.30;2.00;;;;;;;20.08;53.66;102697.22;5112343;28;20054;-84
2022/07/17 07:52:31;;;;;;;3.42;1.63;;;;;;;20.25;52.18;102692.34;5113233;28;20032;-84
2022/07/17 07:54:56;;;;;;;4.60;2.30;;;;;;;20.31;50.49;102692.22;5111803;28;20032;-82
2022/07/17 07:57:22;;;;;;;2.30;1.73;;;;;;;20.19;51.79;102696.03;5113141;28;20367;-83
2022/07/17 07:59:47;;;;;;;4.77;2.70;;;;;;;19.95;51.46;102699.28;5112776;28;20032;-83
2022/07/17 08:02:12;;;;;;;3.27;2.10;;;;;;;19.81;53.72;102691.72;5112318;28;20023;-84
2022/07/17 08:04:37;;;;;;;1.80;1.70;;;;;;;19.99;53.80;102701.81;5112754;28;20387;-88
2022/07/17 08:07:02;;;;;;;2.93;1.37;;;;;;;20.20;53.84;102702.19;5113201;28;20023;-86
2022/07/17 08:09:28;;;;;;;4.50;2.00;;;;;;;20.36;52.08;102705.28;5112427;28;20024;-86
2022/07/17 08:11:53;;;;;;;5.67;2.00;;;;;;;20.25;51.94;102704.69;5112347;28;20124;-86
2022/07/17 08:14:18;;;;;;;3.33;1.40;;;;;;;20.25;52.32;102697.63;5112849;28;20022;-86
2022/07/17 08:16:44;;;;;;;2.80;1.83;;;;;;;20.24;52.06;102700.31;5112424;28;20364;-86
2022/07/17 08:19:09;;;;;;;1.90;1.57;;;;;;;20.33;52.60;102703.56;5112468;28;20039;-86
2022/07/17 08:21:34;;;;;;;2.13;1.37;;;;;;;20.51;52.23;102696.91;5112734;28;20038;-86
2022/07/17 08:24:00;;;;;;;2.70;1.80;;;;;;;20.60;48.37;102711.63;5112367;28;20024;-87
2022/07/17 08:26:30;;;;;;;4.50;2.10;;;;;;;20.32;50.06;102707.09;5113081;28;20125;-87
2022/07/17 08:29:01;;;;;;;3.10;1.95;;;;;;;20.27;48.91;102701.09;5112575;28;20070;-83
2022/07/17 08:31:29;;;;;;;2.55;1.42;;;;;;;20.37;51.18;102704.38;5111242;28;20028;-83
2022/07/17 08:33:54;;;;;;;1.60;1.50;;;;;;;20.61;51.18;102701.94;5112466;28;20030;-83
2022/07/17 08:36:23;;;;;;;1.73;1.40;;;;;;;20.78;50.29;102704.13;5112239;28;20031;-82
2022/07/17 08:38:48;;;;;;;1.55;1.30;;;;;;;20.87;51.45;102698.59;5113513;28;20035;-84
2022/07/17 08:41:16;;;;;;;1.17;1.07;;;;;;;21.10;51.81;102700.53;5116696;28;20019;-85
2022/07/17 08:43:41;;;;;;;0.65;0.65;;;;;;;21.30;51.63;102696.41;5116153;28;20024;-85
2022/07/17 08:46:10;;;;;;;1.90;1.30;;;;;;;21.44;48.67;102691.56;5116753;28;20024;-84
2022/07/17 08:48:39;;;;;;;2.33;1.40;;;;;;;21.40;50.62;102697.00;5116344;28;20020;-84
2022/07/17 08:51:06;;;;;;;1.20;1.10;;;;;;;21.48;49.60;102697.59;5114788;27;20035;-85
2022/07/17 08:53:31;;;;;;;1.42;1.30;;;;;;;21.53;50.69;102693.06;5115244;28;20399;-84
2022/07/17 08:55:57;;;;;;;2.23;1.60;;;;;;;21.58;49.99;102693.75;5116096;28;20084;-85
2022/07/17 08:58:23;;;;;;;2.28;1.60;;;;;;;21.70;50.73;102683.72;5115496;28;20054;-85
2022/07/17 09:00:52;;;;;;;1.53;1.20;;;;;;;21.96;49.12;102685.47;5116099;28;20031;-84
2022/07/17 09:03:18;;;;;;;3.38;1.98;;;;;;;21.93;45.92;102693.53;5116274;28;20032;-84
2022/07/17 09:05:44;;;;;;;2.67;1.85;;;;;;;21.70;47.07;102695.19;5114656;28;20119;-85
2022/07/17 09:08:16;;;;;;;5.22;1.90;;;;;;;21.68;46.70;102688.19;5116014;27;20031;-85
2022/07/17 09:10:45;;;;;;;2.20;1.55;;;;;;;21.75;47.40;102682.66;5116232;27;20059;-85
2022/07/17 09:13:28;;;;;;;5.15;1.60;;;;;;;21.79;48.36;102687.84;5115001;28;20027;-84
2022/07/17 09:16:07;;;;;;;3.22;2.03;;;;;;;21.90;46.83;102685.72;5115895;28;20028;-85
2022/07/17 09:18:46;;;;;;;1.67;1.52;;;;;;;22.00;45.88;102686.28;5112462;28;20094;-86
2022/07/17 09:21:19;;;;;;;4.60;1.58;;;;;;;22.08;44.67;102686.84;5115675;28;20015;-84
2022/07/17 09:23:44;;;;;;;1.00;1.00;;;;;;;22.20;46.34;102683.78;5115876;28;20030;-85
2022/07/17 09:26:10;;;;;;;1.77;1.50;;;;;;;22.31;44.55;102693.97;5112811;28;20031;-84
2022/07/17 09:28:45;;;;;;;1.90;1.38;;;;;;;22.27;43.97;102691.50;5115571;28;20031;-85
2022/07/17 09:31:10;;;;;;;3.67;2.00;;;;;;;22.13;43.96;102687.53;5115065;28;20028;-84
2022/07/17 09:33:39;;;;;;;3.13;1.63;;;;;;;22.13;46.54;102682.25;5114410;28;20429;-84
2022/07/17 09:36:12;;;;;;;2.30;1.45;;;;;;;22.27;44.90;102673.84;5115656;28;20023;-85
2022/07/17 09:38:42;;;;;;;1.77;1.60;;;;;;;22.40;46.48;102673.41;5115886;28;20032;-84
2022/07/17 09:41:12;;;;;;;2.00;1.58;;;;;;;;;;5114457;28;20055;-84
2022/07/17 09:44:07;;;;;;;2.35;1.40;;;;;;;22.69;43.94;102675.00;5113661;28;20032;-84
2022/07/17 09:46:33;;;;;;;;;;;;;;;22.91;43.12;102668.91;5094094;28;20062;-84
2022/07/17 09:49:02;;;;;;;1.73;1.35;;;;;;;23.02;40.25;102669.34;5113044;28;20419;-85
2022/07/17 09:51:28;;;;;;;2.05;1.50;;;;;;;22.96;43.56;102667.81;5113462;28;20043;-82
2022/07/17 09:53:56;;;;;;;2.15;1.17;;;;;;;23.13;43.26;102675.09;5113936;28;20028;-83
2022/07/17 09:56:23;;;;;;;1.90;1.45;;;;;;;23.15;43.77;102672.38;5115336;28;20027;-83
2022/07/17 09:58:51;;;;;;;1.85;1.27;;;;;;;23.32;43.66;102673.50;5115337;28;20026;-84
2022/07/17 10:01:18;;;;;;;3.85;1.70;;;;;;;23.38;40.53;102676.75;5114890;28;20020;-84
2022/07/17 10:03:44;;;;;;;5.15;2.33;;;;;;;23.02;39.74;102679.06;5115306;28;20089;-84
2022/07/17 10:06:10;;;;;;;;;;;;;;;22.95;41.95;102678.44;5115514;28;20512;-84
2022/07/17 10:08:37;;;;;;;3.33;1.73;;;;;;;23.10;42.31;102676.97;5114488;28;19916;-84
2022/07/17 10:11:03;;;;;;;2.58;1.50;;;;;;;23.26;38.39;102691.38;5114813;28;20028;-83
2022/07/17 10:13:30;;;;;;;3.40;1.60;;;;;;;23.23;41.35;102682.69;5115169;28;20019;-84
2022/07/17 10:15:56;;;;;;;2.83;1.60;;;;;;;23.20;38.32;102683.66;5114325;28;20023;-83
2022/07/17 10:18:21;;;;;;;3.03;1.70;;;;;;;23.12;39.25;102685.72;5114740;28;20374;-81
2022/07/17 10:20:47;;;;;;;1.60;1.20;;;;;;;23.22;40.42;102689.75;5114441;28;20284;-81
2022/07/17 10:23:15;;;;;;;2.40;1.00;;;;;;;23.40;39.37;102680.22;5114084;28;20039;-85
2022/07/17 10:25:42;;;;;;;1.83;1.20;;;;;;;23.58;40.17;102681.25;5114995;28;20048;-85
2022/07/17 10:28:08;;;;;;;0.77;0.70;;;;;;;23.86;40.74;102677.44;5111415;28;20494;-84
2022/07/17 10:30:33;;;;;;;1.07;0.93;;;;;;;24.13;39.90;102679.00;5102692;28;20031;-83
2022/07/17 10:33:04;;;;;;;2.13;1.33;;;;;;;24.29;37.99;102681.84;5094154;28;20629;-83
2022/07/17 10:35:43;;;;;;;1.27;1.17;;;;;;;24.40;40.10;102684.88;5094486;28;20601;-83
2022/07/17 10:38:12;;;;;;;1.08;1.00;;;;;;;24.55;37.25;102683.31;5101406;28;20020;-83
2022/07/17 10:40:37;;;;;;;2.15;1.20;;;;;;;24.67;38.91;102680.09;5095092;28;20032;-83
2022/07/17 10:43:07;;;;;;;1.17;1.07;;;;;;;24.75;37.31;102677.13;5096815;28;20030;-85
2022/07/17 10:45:37;;;;;;;1.40;1.10;;;;;;;24.85;38.86;102682.00;5096308;28;20498;-85
2022/07/17 10:48:05;;;;;;;1.90;1.45;;;;;;;24.90;37.07;102679.97;5097179;28;20024;-85
2022/07/17 10:50:40;;;;;;;2.13;1.38;;;;;;;24.94;34.62;102678.91;5102163;28;20140;-83
2022/07/17 10:53:05;;;;;;;2.38;1.17;;;;;;;24.93;36.21;102674.50;5112936;28;20483;-84
2022/07/17 10:55:31;;;;;;;1.20;1.10;;;;;;;25.08;38.42;102665.81;5095768;28;20032;-83
2022/07/17 10:57:57;;;;;;;2.17;1.50;;;;;;;25.23;37.97;102668.66;5093433;28;20028;-83
2022/07/17 11:00:23;;;;;;;4.03;1.80;;;;;;;25.14;35.23;102669.97;5094136;28;20020;-83
2022/07/17 11:02:48;;;;;;;2.95;1.58;;;;;;;25.12;35.19;102672.69;5096704;28;20027;-83
2022/07/17 11:05:15;;;;;;;3.23;1.50;;;;;;;25.13;37.08;102670.91;5106297;28;20451;-81
2022/07/17 11:07:56;;;;;;;2.83;1.52;;;;;;;25.09;37.58;102669.34;5113631;27;20349;-83
2022/07/17 11:10:25;;;;;;;2.55;1.30;;;;;;;25.34;35.56;102671.63;5114073;27;20049;-84
2022/07/17 11:12:51;;;;;;;2.60;1.50;;;;;;;25.42;37.20;102669.53;5112762;28;20039;-81
2022/07/17 11:15:17;;;;;;;;;;;;;;;25.49;37.40;102672.75;5114031;28;20562;-85
2022/07/17 11:17:47;;;;;;;1.13;1.02;;;;;;;25.71;38.19;102674.31;5124889;28;19965;-90
2022/07/17 11:20:13;;;;;;;1.15;1.05;;;;;;;25.97;36.59;102669.44;5113671;28;20460;-84
2022/07/17 11:22:38;;;;;;;1.23;0.80;;;;;;;26.14;37.47;102665.91;5113938;28;20023;-84